Southfield, Louisiana
Current Conditions -  °F | °C
As of 6:53 AM on Friday 19 Dec 2014 (Local Time) from KDTN Reporting Station
Overcast Overcast  
Wind Chill: 44°   Ceiling: 1000
Heat Index: 48°   Visibility: 10mi
Dew Point: 44°   Wind: 8mph
Humidity: 86%   Direction: 20°NNE
Pressure: 30.14"   Gusts: NA
Location:  32.457°N, 93.7096°W
Report Text: KDTN 191253Z AUTO 02007KT 10SM OVC010 09/07 A3014 RMK AO2 SLP207 T00890067
Loading
Personal Weather Stations






























Interactive Weather Map New forecast layout! Learn more

10-Day Weather Forecast

Advertisements
Track Severe Weather on mobile